createdAt,value
2016-12-18T00:00:06.107Z,74600
2016-12-18T00:00:14.763Z,74603
2016-12-18T00:00:23.425Z,74600
2016-12-18T00:00:32.099Z,74600
2016-12-18T00:00:40.757Z,74599
2016-12-18T00:00:49.410Z,74602
2016-12-18T00:00:58.066Z,74599
2016-12-18T00:01:06.727Z,74600
2016-12-18T00:01:15.393Z,74598
2016-12-18T00:01:24.053Z,74600
2016-12-18T00:01:32.713Z,74604
2016-12-18T00:01:41.662Z,74602
2016-12-18T00:01:50.313Z,74599
2016-12-18T00:01:58.971Z,74600
2016-12-18T00:02:07.635Z,74604
2016-12-18T00:02:16.290Z,74595
2016-12-18T00:02:24.946Z,74598
2016-12-18T00:02:33.608Z,74600
2016-12-18T00:02:42.263Z,74600
2016-12-18T00:02:50.916Z,74601
2016-12-18T00:02:59.581Z,74602
2016-12-18T00:03:08.237Z,74599
2016-12-18T00:03:16.891Z,74597
2016-12-18T00:03:25.545Z,74599
2016-12-18T00:03:34.205Z,74598
2016-12-18T00:03:42.862Z,74601
2016-12-18T00:03:51.516Z,74601
2016-12-18T00:04:00.175Z,74599
2016-12-18T00:04:08.830Z,74598
2016-12-18T00:04:17.489Z,74603
2016-12-18T00:04:26.148Z,74602
2016-12-18T00:04:34.804Z,74599
2016-12-18T00:04:43.459Z,74599
2016-12-18T00:04:52.120Z,74597
2016-12-18T00:05:00.779Z,74600
2016-12-18T00:05:09.436Z,74600
2016-12-18T00:05:18.092Z,74600
2016-12-18T00:05:26.749Z,74598
2016-12-18T00:05:35.401Z,74598
2016-12-18T00:05:44.095Z,74604
2016-12-18T00:05:52.759Z,74600
2016-12-18T00:06:01.414Z,74597
2016-12-18T00:06:10.074Z,74599
2016-12-18T00:06:19.021Z,74599
2016-12-18T00:06:27.682Z,74603
2016-12-18T00:06:36.340Z,74601
2016-12-18T00:06:45.003Z,74602
2016-12-18T00:06:53.661Z,74598
2016-12-18T00:07:02.323Z,74600
2016-12-18T00:07:10.987Z,74601
2016-12-18T00:07:19.679Z,74600
2016-12-18T00:07:28.367Z,74600
2016-12-18T00:07:37.025Z,74602
2016-12-18T00:07:45.684Z,74603
2016-12-18T00:07:54.340Z,74598
2016-12-18T00:08:02.997Z,74600
2016-12-18T00:08:11.684Z,74602
2016-12-18T00:08:20.342Z,74602
2016-12-18T00:08:29.006Z,74601
2016-12-18T00:08:37.664Z,74596
2016-12-18T00:08:46.323Z,74597
2016-12-18T00:08:55.004Z,74600
2016-12-18T00:09:03.665Z,74597
2016-12-18T00:09:12.320Z,74598
2016-12-18T00:09:20.975Z,74598
2016-12-18T00:09:29.639Z,74597
2016-12-18T00:09:38.295Z,74597
2016-12-18T00:09:46.954Z,74597
2016-12-18T00:09:55.617Z,74596
2016-12-18T00:10:04.271Z,74596
2016-12-18T00:10:12.927Z,74598
2016-12-18T00:10:21.582Z,74595
2016-12-18T00:10:30.235Z,74596
2016-12-18T00:10:38.899Z,74595
2016-12-18T00:10:47.557Z,74596
2016-12-18T00:10:56.210Z,74595
2016-12-18T00:11:04.868Z,74597
2016-12-18T00:11:13.523Z,74593
2016-12-18T00:11:22.181Z,74593
2016-12-18T00:11:30.841Z,74596
2016-12-18T00:11:39.498Z,74597
2016-12-18T00:11:48.159Z,74594
2016-12-18T00:11:56.823Z,74594
2016-12-18T00:12:05.485Z,74595
2016-12-18T00:12:14.147Z,74593
2016-12-18T00:12:23.095Z,74594
2016-12-18T00:12:31.745Z,74594
2016-12-18T00:12:40.405Z,74590
2016-12-18T00:12:49.061Z,74593
2016-12-18T00:12:57.729Z,74596
2016-12-18T00:13:06.672Z,74593
2016-12-18T00:13:15.328Z,74595
2016-12-18T00:13:23.990Z,74594
2016-12-18T00:13:32.644Z,74596
2016-12-18T00:13:41.307Z,74594
2016-12-18T00:13:49.967Z,74595
2016-12-18T00:13:58.629Z,74592
2016-12-18T00:14:07.287Z,74594
2016-12-18T00:14:15.942Z,74595
2016-12-18T00:14:24.605Z,74595
2016-12-18T00:14:33.258Z,74592
2016-12-18T00:14:41.915Z,74592
2016-12-18T00:14:50.572Z,74595
2016-12-18T00:14:59.228Z,74595
2016-12-18T00:15:07.889Z,74590
2016-12-18T00:15:16.544Z,74590
2016-12-18T00:15:25.203Z,74599
2016-12-18T00:15:33.862Z,74596
2016-12-18T00:15:42.524Z,74593
2016-12-18T00:15:51.176Z,74591
2016-12-18T00:15:59.830Z,74592
2016-12-18T00:16:08.493Z,74590
2016-12-18T00:16:17.179Z,74594
2016-12-18T00:16:25.835Z,74593
2016-12-18T00:16:34.494Z,74588
2016-12-18T00:16:43.160Z,74592
2016-12-18T00:16:51.819Z,74590
2016-12-18T00:17:00.476Z,74594
2016-12-18T00:17:09.136Z,74587
2016-12-18T00:17:17.792Z,74592
2016-12-18T00:17:26.460Z,74589
2016-12-18T00:17:35.404Z,74588
2016-12-18T00:17:44.060Z,74591
2016-12-18T00:17:52.722Z,74596
2016-12-18T00:18:01.375Z,74588
2016-12-18T00:18:10.318Z,74596
2016-12-18T00:18:18.976Z,74592
2016-12-18T00:18:27.669Z,74592
2016-12-18T00:18:36.334Z,74586
2016-12-18T00:18:44.992Z,74589
2016-12-18T00:18:53.647Z,74591
2016-12-18T00:19:02.305Z,74590
2016-12-18T00:19:10.964Z,74588
2016-12-18T00:19:19.623Z,74586
2016-12-18T00:19:28.286Z,74585
2016-12-18T00:19:36.946Z,74586
2016-12-18T00:19:45.599Z,74589
2016-12-18T00:19:54.261Z,74588
2016-12-18T00:20:02.919Z,74591
2016-12-18T00:20:11.575Z,74588
2016-12-18T00:20:20.238Z,74590
2016-12-18T00:20:28.899Z,74584
2016-12-18T00:20:37.563Z,74587
2016-12-18T00:20:46.219Z,74585
2016-12-18T00:20:54.887Z,74587
2016-12-18T00:21:03.537Z,74586
2016-12-18T00:21:12.198Z,74590
2016-12-18T00:21:20.862Z,74586
2016-12-18T00:21:29.519Z,74589
2016-12-18T00:21:38.186Z,74583
2016-12-18T00:21:46.845Z,74585
2016-12-18T00:21:55.533Z,74589
2016-12-18T00:22:04.195Z,74589
2016-12-18T00:22:13.138Z,74586
2016-12-18T00:22:21.800Z,74588
2016-12-18T00:22:30.497Z,74589
2016-12-18T00:22:39.158Z,74586
2016-12-18T00:22:47.815Z,74585
2016-12-18T00:22:56.474Z,74587
2016-12-18T00:23:05.135Z,74587
2016-12-18T00:23:13.794Z,74586
2016-12-18T00:23:22.458Z,74584
2016-12-18T00:23:31.115Z,74584
2016-12-18T00:23:39.776Z,74580
2016-12-18T00:23:48.435Z,74584
2016-12-18T00:23:57.092Z,74585
2016-12-18T00:24:06.043Z,74586
2016-12-18T00:24:14.706Z,74584
2016-12-18T00:24:23.367Z,74581
2016-12-18T00:24:32.027Z,74585
2016-12-18T00:24:40.686Z,74584
2016-12-18T00:24:49.350Z,74588
2016-12-18T00:24:58.004Z,74585
2016-12-18T00:25:06.699Z,74585
2016-12-18T00:25:15.383Z,74584
2016-12-18T00:25:24.047Z,74587
2016-12-18T00:25:32.702Z,74587
2016-12-18T00:25:41.363Z,74586
2016-12-18T00:25:50.017Z,74586
2016-12-18T00:25:58.678Z,74585
2016-12-18T00:26:07.340Z,74582
2016-12-18T00:26:15.996Z,74586
2016-12-18T00:26:24.657Z,74587
2016-12-18T00:26:33.314Z,74589
2016-12-18T00:26:41.969Z,74587
2016-12-18T00:26:50.628Z,74588
2016-12-18T00:26:59.288Z,74584
2016-12-18T00:27:07.951Z,74584
2016-12-18T00:27:16.606Z,74585
2016-12-18T00:27:25.263Z,74589
2016-12-18T00:27:33.925Z,74590
2016-12-18T00:27:42.593Z,74588
2016-12-18T00:27:51.252Z,74586
2016-12-18T00:27:59.910Z,74589
2016-12-18T00:28:08.564Z,74588
2016-12-18T00:28:17.220Z,74585
2016-12-18T00:28:25.882Z,74584
2016-12-18T00:28:34.535Z,74588
2016-12-18T00:28:43.200Z,74587
2016-12-18T00:28:51.863Z,74587
2016-12-18T00:29:00.525Z,74583
2016-12-18T00:29:09.198Z,74588
2016-12-18T00:29:17.866Z,74587
2016-12-18T00:29:26.525Z,74587
2016-12-18T00:29:35.473Z,74586
2016-12-18T00:29:44.136Z,74586
2016-12-18T00:29:52.796Z,74584
2016-12-18T00:30:01.478Z,74585
2016-12-18T00:30:10.169Z,74585
2016-12-18T00:30:18.824Z,74583
2016-12-18T00:30:27.480Z,74585
2016-12-18T00:30:36.133Z,74586
2016-12-18T00:30:44.790Z,74580
2016-12-18T00:30:53.452Z,74578
2016-12-18T00:31:02.117Z,74584
2016-12-18T00:31:10.773Z,74584
2016-12-18T00:31:19.435Z,74585
2016-12-18T00:31:28.097Z,74585
2016-12-18T00:31:36.762Z,74583
2016-12-18T00:31:45.448Z,74585
2016-12-18T00:31:54.109Z,74584
2016-12-18T00:32:02.768Z,74582
2016-12-18T00:32:11.423Z,74582
2016-12-18T00:32:20.082Z,74584
2016-12-18T00:32:28.737Z,74582
2016-12-18T00:32:37.414Z,74584
2016-12-18T00:32:46.074Z,74582
2016-12-18T00:32:54.730Z,74578
2016-12-18T00:33:03.391Z,74582
2016-12-18T00:33:12.050Z,74581
2016-12-18T00:33:20.707Z,74584
2016-12-18T00:33:29.371Z,74585
2016-12-18T00:33:38.029Z,74584
2016-12-18T00:33:46.984Z,74587
2016-12-18T00:33:55.638Z,74583
2016-12-18T00:34:04.302Z,74585
2016-12-18T00:34:12.958Z,74583
2016-12-18T00:34:21.905Z,74577
2016-12-18T00:34:30.565Z,74583
2016-12-18T00:34:39.219Z,74584
2016-12-18T00:34:47.875Z,74578
2016-12-18T00:34:56.536Z,74577
2016-12-18T00:35:05.198Z,74580
2016-12-18T00:35:13.854Z,74580
2016-12-18T00:35:22.508Z,74577
2016-12-18T00:35:31.163Z,74576
2016-12-18T00:35:39.821Z,74581
2016-12-18T00:35:48.475Z,74578
2016-12-18T00:35:57.136Z,74579
2016-12-18T00:36:05.792Z,74578
2016-12-18T00:36:14.446Z,74575
2016-12-18T00:36:23.110Z,74576
2016-12-18T00:36:31.768Z,74577
2016-12-18T00:36:40.428Z,74573
2016-12-18T00:36:49.084Z,74574
2016-12-18T00:36:57.740Z,74577
2016-12-18T00:37:06.406Z,74578
2016-12-18T00:37:15.069Z,74573
2016-12-18T00:37:23.728Z,74580
2016-12-18T00:37:32.386Z,74575
2016-12-18T00:37:41.053Z,74574
2016-12-18T00:37:49.713Z,74575
2016-12-18T00:37:58.370Z,74580
2016-12-18T00:38:07.027Z,74579
2016-12-18T00:38:15.680Z,74578
2016-12-18T00:38:24.340Z,74583
2016-12-18T00:38:32.996Z,74577
2016-12-18T00:38:41.653Z,74579
2016-12-18T00:38:50.315Z,74579
2016-12-18T00:38:58.972Z,74579
2016-12-18T00:39:07.639Z,74579
2016-12-18T00:39:16.293Z,74581
2016-12-18T00:39:24.956Z,74579
2016-12-18T00:39:33.610Z,74574
2016-12-18T00:39:42.566Z,74578
2016-12-18T00:39:51.223Z,74576
2016-12-18T00:39:59.910Z,74578
2016-12-18T00:40:08.569Z,74581
2016-12-18T00:40:17.513Z,74583
2016-12-18T00:40:26.171Z,74583
2016-12-18T00:40:34.826Z,74578
2016-12-18T00:40:43.483Z,74579
2016-12-18T00:40:52.146Z,74580
2016-12-18T00:41:00.813Z,74580
2016-12-18T00:41:09.768Z,74575
2016-12-18T00:41:18.426Z,74575
2016-12-18T00:41:27.087Z,74576
2016-12-18T00:41:35.776Z,74577
2016-12-18T00:41:44.429Z,74576
2016-12-18T00:41:53.087Z,74576
2016-12-18T00:42:01.746Z,74576
2016-12-18T00:42:10.431Z,74573
2016-12-18T00:42:19.088Z,74576
2016-12-18T00:42:27.743Z,74576
2016-12-18T00:42:36.399Z,74576
2016-12-18T00:42:45.053Z,74579
2016-12-18T00:42:53.711Z,74576
2016-12-18T00:43:02.366Z,74577
2016-12-18T00:43:11.017Z,74574
2016-12-18T00:43:19.679Z,74576
2016-12-18T00:43:28.336Z,74576
2016-12-18T00:43:36.999Z,74571
2016-12-18T00:43:45.656Z,74571
2016-12-18T00:43:54.317Z,74574
2016-12-18T00:44:02.980Z,74578
2016-12-18T00:44:11.640Z,74575
2016-12-18T00:44:20.306Z,74573
2016-12-18T00:44:28.963Z,74573
2016-12-18T00:44:37.620Z,74571
2016-12-18T00:44:46.277Z,74575
2016-12-18T00:44:54.931Z,74569
2016-12-18T00:45:03.593Z,74567
2016-12-18T00:45:12.256Z,74569
2016-12-18T00:45:21.196Z,74573
2016-12-18T00:45:29.854Z,74577
2016-12-18T00:45:38.512Z,74568
2016-12-18T00:45:47.172Z,74570
2016-12-18T00:45:55.826Z,74575
2016-12-18T00:46:04.482Z,74568
2016-12-18T00:46:13.141Z,74567
2016-12-18T00:46:21.800Z,74568
2016-12-18T00:46:30.464Z,74567
2016-12-18T00:46:39.123Z,74563
2016-12-18T00:46:47.778Z,74568
2016-12-18T00:46:56.730Z,74566
2016-12-18T00:47:05.679Z,74570
2016-12-18T00:47:14.337Z,74569
2016-12-18T00:47:22.997Z,74564
2016-12-18T00:47:31.659Z,74568
2016-12-18T00:47:40.326Z,74560
2016-12-18T00:47:48.986Z,74571
2016-12-18T00:47:57.647Z,74566
2016-12-18T00:48:06.302Z,74569
2016-12-18T00:48:14.959Z,74560
2016-12-18T00:48:23.612Z,74564
2016-12-18T00:48:32.303Z,74566
2016-12-18T00:48:40.962Z,74561
2016-12-18T00:48:49.649Z,74562
2016-12-18T00:48:58.311Z,74559
2016-12-18T00:49:06.967Z,74566
2016-12-18T00:49:15.629Z,74564
2016-12-18T00:49:24.289Z,74558
2016-12-18T00:49:32.957Z,74562
2016-12-18T00:49:41.619Z,74564
2016-12-18T00:49:50.272Z,74568
2016-12-18T00:49:58.935Z,74567
2016-12-18T00:50:07.594Z,74563
2016-12-18T00:50:16.250Z,74573
2016-12-18T00:50:24.914Z,74569
2016-12-18T00:50:33.618Z,74564
2016-12-18T00:50:42.278Z,74562
2016-12-18T00:50:50.933Z,74565
2016-12-18T00:50:59.587Z,74564
2016-12-18T00:51:08.243Z,74568
2016-12-18T00:51:16.903Z,74567
2016-12-18T00:51:25.561Z,74573
2016-12-18T00:51:34.218Z,74565
2016-12-18T00:51:42.874Z,74565
2016-12-18T00:51:51.531Z,74566
2016-12-18T00:52:00.491Z,74566
2016-12-18T00:52:09.154Z,74571
2016-12-18T00:52:17.808Z,74565
2016-12-18T00:52:26.465Z,74563
2016-12-18T00:52:35.119Z,74562
2016-12-18T00:52:43.778Z,74564
2016-12-18T00:52:52.442Z,74568
2016-12-18T00:53:01.109Z,74558
2016-12-18T00:53:09.766Z,74569
2016-12-18T00:53:18.426Z,74573
2016-12-18T00:53:27.082Z,74574
2016-12-18T00:53:35.745Z,74569
2016-12-18T00:53:44.405Z,74569
2016-12-18T00:53:53.101Z,74575
2016-12-18T00:54:01.765Z,74565
2016-12-18T00:54:10.707Z,74565
2016-12-18T00:54:19.366Z,74567
2016-12-18T00:54:28.054Z,74569
2016-12-18T00:54:36.713Z,74568
2016-12-18T00:54:45.372Z,74567
2016-12-18T00:54:54.027Z,74566
2016-12-18T00:55:02.682Z,74565
2016-12-18T00:55:11.342Z,74566
2016-12-18T00:55:20.001Z,74567
2016-12-18T00:55:28.689Z,74566
2016-12-18T00:55:37.348Z,74564
2016-12-18T00:55:46.009Z,74562
2016-12-18T00:55:54.669Z,74567
2016-12-18T00:56:03.328Z,74570
2016-12-18T00:56:11.988Z,74568
2016-12-18T00:56:20.644Z,74567
2016-12-18T00:56:29.297Z,74567
2016-12-18T00:56:37.952Z,74562
2016-12-18T00:56:46.609Z,74564
2016-12-18T00:56:55.262Z,74564
2016-12-18T00:57:03.921Z,74558
2016-12-18T00:57:12.584Z,74563
2016-12-18T00:57:21.245Z,74562
2016-12-18T00:57:29.906Z,74566
2016-12-18T00:57:38.564Z,74566
2016-12-18T00:57:47.222Z,74561
2016-12-18T00:57:55.881Z,74563
2016-12-18T00:58:04.534Z,74561
2016-12-18T00:58:13.186Z,74564
2016-12-18T00:58:21.845Z,74558
2016-12-18T00:58:30.499Z,74565
2016-12-18T00:58:39.160Z,74566
2016-12-18T00:58:47.819Z,74559
2016-12-18T00:58:56.470Z,74561
2016-12-18T00:59:05.158Z,74565
2016-12-18T00:59:13.815Z,74560
2016-12-18T00:59:22.477Z,74558
2016-12-18T00:59:31.132Z,74563
2016-12-18T00:59:39.793Z,74556
2016-12-18T00:59:48.448Z,74565
2016-12-18T00:59:57.107Z,74561
2016-12-18T01:00:05.764Z,74561
2016-12-18T01:00:14.421Z,74568
2016-12-18T01:00:23.085Z,74563
2016-12-18T01:00:31.744Z,74567
2016-12-18T01:00:40.695Z,74559
2016-12-18T01:00:49.351Z,74565
2016-12-18T01:00:58.040Z,74567
2016-12-18T01:01:06.698Z,74566
2016-12-18T01:01:15.355Z,74569
2016-12-18T01:01:24.017Z,74567
2016-12-18T01:01:32.676Z,74567
2016-12-18T01:01:41.363Z,74567
2016-12-18T01:01:50.020Z,74572
2016-12-18T01:01:58.683Z,74571
2016-12-18T01:02:07.343Z,74572
2016-12-18T01:02:16.002Z,74569
2016-12-18T01:02:24.660Z,74572
2016-12-18T01:02:33.325Z,74571
2016-12-18T01:02:41.982Z,74572
2016-12-18T01:02:50.644Z,74573
2016-12-18T01:02:59.310Z,74572
2016-12-18T01:03:07.966Z,74574
2016-12-18T01:03:16.626Z,74575
2016-12-18T01:03:25.288Z,74570
2016-12-18T01:03:33.982Z,74568
2016-12-18T01:03:42.638Z,74572
2016-12-18T01:03:51.297Z,74575
2016-12-18T01:03:59.959Z,74569
2016-12-18T01:04:08.617Z,74568
2016-12-18T01:04:17.269Z,74569
2016-12-18T01:04:25.924Z,74571
2016-12-18T01:04:34.578Z,74569
2016-12-18T01:04:43.247Z,74570
2016-12-18T01:04:51.915Z,74567
2016-12-18T01:05:00.574Z,74568
2016-12-18T01:05:09.236Z,74569
2016-12-18T01:05:17.895Z,74569
2016-12-18T01:05:26.565Z,74568
2016-12-18T01:05:35.221Z,74564
2016-12-18T01:05:43.875Z,74565
2016-12-18T01:05:52.542Z,74566
2016-12-18T01:06:01.198Z,74566
2016-12-18T01:06:09.862Z,74565
2016-12-18T01:06:18.522Z,74565
2016-12-18T01:06:27.176Z,74571
2016-12-18T01:06:35.839Z,74563
2016-12-18T01:06:44.503Z,74564
2016-12-18T01:06:53.161Z,74568
2016-12-18T01:07:01.862Z,74566
2016-12-18T01:07:10.521Z,74565
2016-12-18T01:07:19.178Z,74566
2016-12-18T01:07:27.833Z,74565
2016-12-18T01:07:36.494Z,74570
2016-12-18T01:07:45.155Z,74563
2016-12-18T01:07:53.812Z,74564
2016-12-18T01:08:02.473Z,74564
2016-12-18T01:08:11.127Z,74562
2016-12-18T01:08:19.779Z,74567
2016-12-18T01:08:28.436Z,74566
2016-12-18T01:08:37.099Z,74561
2016-12-18T01:08:45.758Z,74566
2016-12-18T01:08:54.419Z,74565
2016-12-18T01:09:03.079Z,74559
2016-12-18T01:09:11.737Z,74565
2016-12-18T01:09:20.427Z,74564
2016-12-18T01:09:29.086Z,74562
2016-12-18T01:09:37.741Z,74563
2016-12-18T01:09:46.403Z,74564
2016-12-18T01:09:55.057Z,74566
2016-12-18T01:10:03.723Z,74567
2016-12-18T01:10:12.378Z,74559
2016-12-18T01:10:21.036Z,74564
2016-12-18T01:10:29.709Z,74563
2016-12-18T01:10:38.375Z,74559
2016-12-18T01:10:47.031Z,74569
2016-12-18T01:10:55.691Z,74564
2016-12-18T01:11:04.351Z,74563
2016-12-18T01:11:13.011Z,74562
2016-12-18T01:11:21.670Z,74566
2016-12-18T01:11:30.335Z,74560
2016-12-18T01:11:38.990Z,74562
2016-12-18T01:11:47.655Z,74565
2016-12-18T01:11:56.316Z,74563
2016-12-18T01:12:05.272Z,74560
2016-12-18T01:12:13.936Z,74564
2016-12-18T01:12:22.594Z,74562
2016-12-18T01:12:31.253Z,74564
2016-12-18T01:12:39.909Z,74563
2016-12-18T01:12:48.562Z,74566
2016-12-18T01:12:57.251Z,74564
2016-12-18T01:13:05.910Z,74567
2016-12-18T01:13:14.570Z,74567
2016-12-18T01:13:23.232Z,74569
2016-12-18T01:13:31.891Z,74561
2016-12-18T01:13:40.546Z,74567
2016-12-18T01:13:49.204Z,74567
2016-12-18T01:13:57.867Z,74564
2016-12-18T01:14:06.524Z,74566
2016-12-18T01:14:15.183Z,74568
2016-12-18T01:14:23.877Z,74567
2016-12-18T01:14:32.541Z,74569
2016-12-18T01:14:41.198Z,74564
2016-12-18T01:14:49.881Z,74567
2016-12-18T01:14:58.538Z,74565
2016-12-18T01:15:07.203Z,74562
2016-12-18T01:15:15.860Z,74565
2016-12-18T01:15:24.520Z,74566
2016-12-18T01:15:33.179Z,74564
2016-12-18T01:15:41.839Z,74570
2016-12-18T01:15:50.500Z,74564
2016-12-18T01:15:59.156Z,74560
2016-12-18T01:16:07.816Z,74565
2016-12-18T01:16:16.469Z,74565
2016-12-18T01:16:25.124Z,74565
2016-12-18T01:16:33.787Z,74564
2016-12-18T01:16:42.445Z,74565
2016-12-18T01:16:51.099Z,74562
2016-12-18T01:16:59.758Z,74562
2016-12-18T01:17:08.442Z,74565
2016-12-18T01:17:17.102Z,74565
2016-12-18T01:17:25.763Z,74562
2016-12-18T01:17:34.422Z,74564
2016-12-18T01:17:43.078Z,74564
2016-12-18T01:17:51.736Z,74556
2016-12-18T01:18:00.390Z,74564
2016-12-18T01:18:09.043Z,74561
2016-12-18T01:18:17.701Z,74561
2016-12-18T01:18:26.368Z,74553
2016-12-18T01:18:35.029Z,74560
2016-12-18T01:18:43.690Z,74563
2016-12-18T01:18:52.385Z,74556
2016-12-18T01:19:01.042Z,74555
2016-12-18T01:19:09.701Z,74557
2016-12-18T01:19:18.357Z,74558
2016-12-18T01:19:27.016Z,74557
2016-12-18T01:19:35.673Z,74555
2016-12-18T01:19:44.332Z,74557
2016-12-18T01:19:52.988Z,74556
2016-12-18T01:20:01.675Z,74558
2016-12-18T01:20:10.339Z,74557
2016-12-18T01:20:18.995Z,74559
2016-12-18T01:20:27.657Z,74559
2016-12-18T01:20:36.316Z,74557
2016-12-18T01:20:44.973Z,74557
2016-12-18T01:20:53.627Z,74557
2016-12-18T01:21:02.284Z,74555
2016-12-18T01:21:10.968Z,74556
2016-12-18T01:21:19.623Z,74555
2016-12-18T01:21:28.278Z,74556
2016-12-18T01:21:36.943Z,74557
2016-12-18T01:21:45.600Z,74559
2016-12-18T01:21:54.265Z,74557
2016-12-18T01:22:02.923Z,74557
2016-12-18T01:22:11.576Z,74557
2016-12-18T01:22:20.236Z,74550
2016-12-18T01:22:28.903Z,74557
2016-12-18T01:22:37.560Z,74553
2016-12-18T01:22:46.221Z,74555
2016-12-18T01:22:54.880Z,74558
2016-12-18T01:23:03.544Z,74558
2016-12-18T01:23:12.201Z,74556
2016-12-18T01:23:20.869Z,74558
2016-12-18T01:23:29.527Z,74553
2016-12-18T01:23:38.181Z,74559
2016-12-18T01:23:46.838Z,74552
2016-12-18T01:23:55.496Z,74556
2016-12-18T01:24:04.150Z,74559
2016-12-18T01:24:12.805Z,74560
2016-12-18T01:24:21.475Z,74556
2016-12-18T01:24:30.135Z,74555
2016-12-18T01:24:38.793Z,74556
2016-12-18T01:24:47.453Z,74555
2016-12-18T01:24:56.112Z,74554
2016-12-18T01:25:04.768Z,74563
2016-12-18T01:25:13.428Z,74556
2016-12-18T01:25:22.082Z,74558
2016-12-18T01:25:30.737Z,74556
2016-12-18T01:25:39.427Z,74552
2016-12-18T01:25:48.084Z,74553
2016-12-18T01:25:56.790Z,74556
2016-12-18T01:26:05.732Z,74558
2016-12-18T01:26:14.389Z,74558
2016-12-18T01:26:23.249Z,74556
2016-12-18T01:26:32.201Z,74553
2016-12-18T01:26:40.859Z,74554
2016-12-18T01:26:49.521Z,74554
2016-12-18T01:26:58.178Z,74554
2016-12-18T01:27:06.839Z,74552
2016-12-18T01:27:15.496Z,74547
2016-12-18T01:27:24.157Z,74556
2016-12-18T01:27:32.817Z,74553
2016-12-18T01:27:41.475Z,74552
2016-12-18T01:27:50.135Z,74553
2016-12-18T01:27:58.799Z,74552
2016-12-18T01:28:07.466Z,74556
2016-12-18T01:28:16.124Z,74552
2016-12-18T01:28:24.780Z,74553
2016-12-18T01:28:33.440Z,74551
2016-12-18T01:28:42.105Z,74555
2016-12-18T01:28:50.762Z,74554
2016-12-18T01:28:59.418Z,74556
2016-12-18T01:29:08.079Z,74554
2016-12-18T01:29:16.737Z,74554
2016-12-18T01:29:25.426Z,74555
2016-12-18T01:29:34.083Z,74553
2016-12-18T01:29:42.744Z,74559
2016-12-18T01:29:51.404Z,74549
2016-12-18T01:30:00.062Z,74553
2016-12-18T01:30:08.720Z,74552
2016-12-18T01:30:17.375Z,74548
2016-12-18T01:30:26.034Z,74550
2016-12-18T01:30:34.699Z,74554
2016-12-18T01:30:43.353Z,74548
2016-12-18T01:30:52.008Z,74557
2016-12-18T01:31:00.667Z,74556
2016-12-18T01:31:09.329Z,74553
2016-12-18T01:31:17.985Z,74553
2016-12-18T01:31:26.641Z,74551
2016-12-18T01:31:35.327Z,74557
2016-12-18T01:31:43.981Z,74557
2016-12-18T01:31:52.631Z,74557
2016-12-18T01:32:01.295Z,74554
2016-12-18T01:32:09.961Z,74557
2016-12-18T01:32:18.619Z,74551
2016-12-18T01:32:27.315Z,74555
2016-12-18T01:32:35.973Z,74555
2016-12-18T01:32:44.633Z,74554
2016-12-18T01:32:53.323Z,74556
2016-12-18T01:33:01.992Z,74557
2016-12-18T01:33:10.656Z,74556
2016-12-18T01:33:19.314Z,74555
2016-12-18T01:33:27.971Z,74557
2016-12-18T01:33:36.633Z,74548
2016-12-18T01:33:45.290Z,74557
2016-12-18T01:33:53.941Z,74555
2016-12-18T01:34:02.602Z,74556
2016-12-18T01:34:11.549Z,74557
2016-12-18T01:34:20.204Z,74557
2016-12-18T01:34:29.153Z,74556
2016-12-18T01:34:37.817Z,74557
2016-12-18T01:34:46.468Z,74558
2016-12-18T01:34:55.128Z,74554
2016-12-18T01:35:03.796Z,74553
2016-12-18T01:35:12.458Z,74551
2016-12-18T01:35:21.116Z,74553
2016-12-18T01:35:29.774Z,74555
2016-12-18T01:35:38.429Z,74557
2016-12-18T01:35:47.116Z,74557
2016-12-18T01:35:55.773Z,74554
2016-12-18T01:36:04.429Z,74555
2016-12-18T01:36:13.084Z,74554
2016-12-18T01:36:21.742Z,74554
2016-12-18T01:36:30.404Z,74557
2016-12-18T01:36:39.057Z,74554
2016-12-18T01:36:47.711Z,74551
2016-12-18T01:36:56.368Z,74559
2016-12-18T01:37:05.024Z,74556
2016-12-18T01:37:13.684Z,74551
2016-12-18T01:37:22.344Z,74560
2016-12-18T01:37:31.033Z,74555
2016-12-18T01:37:39.686Z,74553
2016-12-18T01:37:48.344Z,74555
2016-12-18T01:37:57.004Z,74553
2016-12-18T01:38:05.686Z,74559
2016-12-18T01:38:14.342Z,74553
2016-12-18T01:38:22.997Z,74559
2016-12-18T01:38:31.653Z,74554
2016-12-18T01:38:40.343Z,74557
2016-12-18T01:38:49.000Z,74551
2016-12-18T01:38:57.663Z,74556
2016-12-18T01:39:06.319Z,74553
2016-12-18T01:39:14.979Z,74553
2016-12-18T01:39:23.638Z,74556
2016-12-18T01:39:32.296Z,74553
2016-12-18T01:39:40.962Z,74557
2016-12-18T01:39:49.623Z,74555
2016-12-18T01:39:58.292Z,74556
2016-12-18T01:40:06.965Z,74552
2016-12-18T01:40:15.918Z,74553
2016-12-18T01:40:24.585Z,74552
2016-12-18T01:40:33.249Z,74551
2016-12-18T01:40:41.934Z,74554
2016-12-18T01:40:50.595Z,74556
2016-12-18T01:40:59.259Z,74556
2016-12-18T01:41:08.214Z,74555
2016-12-18T01:41:16.868Z,74558
2016-12-18T01:41:25.525Z,74555
2016-12-18T01:41:34.187Z,74556
2016-12-18T01:41:42.854Z,74556
2016-12-18T01:41:51.515Z,74553
2016-12-18T01:42:00.174Z,74555
2016-12-18T01:42:08.827Z,74556
2016-12-18T01:42:17.479Z,74553
2016-12-18T01:42:26.135Z,74553
2016-12-18T01:42:34.795Z,74551
2016-12-18T01:42:43.452Z,74553
2016-12-18T01:42:52.104Z,74554
2016-12-18T01:43:00.769Z,74554
2016-12-18T01:43:09.422Z,74555
2016-12-18T01:43:18.077Z,74555
2016-12-18T01:43:26.738Z,74557
2016-12-18T01:43:35.399Z,74554
2016-12-18T01:43:44.056Z,74555
2016-12-18T01:43:52.717Z,74557
2016-12-18T01:44:01.404Z,74555
2016-12-18T01:44:10.063Z,74556
2016-12-18T01:44:18.728Z,74556
2016-12-18T01:44:27.392Z,74557
2016-12-18T01:44:36.055Z,74555
2016-12-18T01:44:44.709Z,74554
2016-12-18T01:44:53.364Z,74554
2016-12-18T01:45:02.040Z,74551
2016-12-18T01:45:10.701Z,74557
2016-12-18T01:45:19.362Z,74554
2016-12-18T01:45:28.029Z,74553
2016-12-18T01:45:36.684Z,74553
2016-12-18T01:45:45.363Z,74555
2016-12-18T01:45:54.021Z,74554
2016-12-18T01:46:02.969Z,74556
2016-12-18T01:46:11.631Z,74554
2016-12-18T01:46:20.317Z,74554
2016-12-18T01:46:28.973Z,74552
2016-12-18T01:46:37.629Z,74555
2016-12-18T01:46:46.291Z,74555
2016-12-18T01:46:54.954Z,74552
2016-12-18T01:47:03.645Z,74556
2016-12-18T01:47:12.303Z,74555
2016-12-18T01:47:20.960Z,74554
2016-12-18T01:47:29.617Z,74552
2016-12-18T01:47:38.272Z,74554
2016-12-18T01:47:46.931Z,74554
2016-12-18T01:47:55.590Z,74553
2016-12-18T01:48:04.280Z,74553
2016-12-18T01:48:12.937Z,74553
2016-12-18T01:48:21.602Z,74553
2016-12-18T01:48:30.265Z,74552
2016-12-18T01:48:38.922Z,74554
2016-12-18T01:48:47.574Z,74552
2016-12-18T01:48:56.517Z,74552
2016-12-18T01:49:05.172Z,74549
2016-12-18T01:49:13.829Z,74548
2016-12-18T01:49:22.489Z,74549
2016-12-18T01:49:31.146Z,74551
2016-12-18T01:49:39.800Z,74551
2016-12-18T01:49:48.459Z,74546
2016-12-18T01:49:57.117Z,74548
2016-12-18T01:50:05.777Z,74550
2016-12-18T01:50:14.435Z,74549
2016-12-18T01:50:23.095Z,74549
2016-12-18T01:50:31.751Z,74549
2016-12-18T01:50:40.413Z,74549
2016-12-18T01:50:49.067Z,74548
2016-12-18T01:50:57.726Z,74550
2016-12-18T01:51:06.381Z,74547
2016-12-18T01:51:15.036Z,74548
2016-12-18T01:51:23.700Z,74552
2016-12-18T01:51:32.353Z,74549
2016-12-18T01:51:41.011Z,74548